Time;durP1;ratioP1;P1;durP2;ratioP2;P2;SDS_P1;SDS_P2;PMS_P1;PMS_P2;Temp;Humidity;BMP_temperature;BMP_pressure;BME280_temperature;BME280_humidity;BME280_pressure;Samples;Min_cycle;Max_cycle;Signal;HPM_P1;HPM_P2
2023/12/06 00:01:41;;;;;;;28.90;14.07;;;;;;;-7.59;94.95;102498.75;5116359;28;20057;-66
2023/12/06 00:04:07;;;;;;;26.57;13.20;;;;;;;-7.83;95.21;102486.75;5097618;28;20055;-63
2023/12/06 00:06:33;;;;;;;20.37;14.37;;;;;;;-8.02;94.09;102487.69;5116350;28;20398;-65
2023/12/06 00:08:58;;;;;;;24.93;12.70;;;;;;;-8.03;96.07;102496.31;5116621;28;20117;-66
2023/12/06 00:11:25;;;;;;;25.20;12.47;;;;;;;-7.98;95.85;102506.63;5114835;28;20494;-65
2023/12/06 00:13:50;;;;;;;24.88;12.57;;;;;;;-7.97;96.53;102495.41;5116527;28;20112;-65
2023/12/06 00:16:16;;;;;;;15.47;11.27;;;;;;;-7.84;96.52;102508.31;5116500;28;20106;-64
2023/12/06 00:18:43;;;;;;;22.03;13.33;;;;;;;-7.71;95.52;102524.69;5116810;28;20395;-66
2023/12/06 00:21:09;;;;;;;26.20;13.98;;;;;;;-7.90;93.76;102507.47;5115503;28;20160;-66
2023/12/06 00:23:35;;;;;;;22.83;12.00;;;;;;;-8.04;92.86;102504.91;5115813;28;20406;-66
2023/12/06 00:26:01;;;;;;;18.47;10.40;;;;;;;-8.12;94.37;102511.81;5114443;28;20058;-64
2023/12/06 00:28:26;;;;;;;24.70;12.37;;;;;;;-8.83;93.75;102409.38;5115795;28;20039;-65
2023/12/06 00:30:52;;;;;;;22.40;12.03;;;;;;;-8.83;92.03;102450.69;5114189;28;20089;-65
2023/12/06 00:33:17;;;;;;;16.47;11.63;;;;;;;-8.92;93.40;102489.44;5115504;28;20035;-66
2023/12/06 00:35:43;;;;;;;22.13;12.63;;;;;;;-8.80;94.53;102531.63;5115536;28;20036;-67
2023/12/06 00:38:09;;;;;;;21.30;13.53;;;;;;;-9.00;95.40;102501.44;5114861;28;20441;-64
2023/12/06 00:40:35;;;;;;;22.38;12.60;;;;;;;-9.00;95.50;102516.94;5116107;28;20031;-67
2023/12/06 00:43:03;;;;;;;25.37;13.17;;;;;;;-8.94;95.79;102527.28;5115888;28;20047;-65
2023/12/06 00:45:29;;;;;;;25.02;14.40;;;;;;;-8.85;95.86;102520.41;5114393;28;20540;-67
2023/12/06 00:47:55;;;;;;;25.63;12.57;;;;;;;-8.75;95.89;102526.44;5115395;28;20032;-63
2023/12/06 00:50:21;;;;;;;26.20;14.75;;;;;;;-8.76;93.64;102533.34;5115509;28;20277;-64
2023/12/06 00:52:46;;;;;;;27.53;13.67;;;;;;;-9.12;92.86;102491.94;5113909;28;20457;-66
2023/12/06 00:55:12;;;;;;;28.03;14.10;;;;;;;-9.10;93.11;102516.91;5115374;28;20499;-67
2023/12/06 00:57:38;;;;;;;29.57;14.47;;;;;;;-9.29;93.61;102522.84;5115148;28;20035;-67
2023/12/06 01:00:04;;;;;;;29.03;15.33;;;;;;;-9.40;93.60;102532.28;5115195;28;20035;-68
2023/12/06 01:02:30;;;;;;;24.10;14.18;;;;;;;-9.49;94.76;102550.28;5115227;28;20036;-64
2023/12/06 01:04:56;;;;;;;28.20;14.20;;;;;;;-9.59;95.66;102557.09;5115082;28;20066;-65
2023/12/06 01:07:22;;;;;;;25.90;13.37;;;;;;;-9.86;95.47;102520.84;5115604;28;20039;-66
2023/12/06 01:09:47;;;;;;;19.93;12.53;;;;;;;-10.00;95.61;102508.75;5115003;28;20035;-64
2023/12/06 01:12:13;;;;;;;29.87;14.30;;;;;;;-10.27;94.82;102492.25;5114757;28;20071;-66
2023/12/06 01:14:39;;;;;;;26.20;15.47;;;;;;;-10.22;95.15;102539.53;5113252;28;20031;-66
2023/12/06 01:17:04;;;;;;;25.33;13.57;;;;;;;-10.50;96.33;102508.38;5114964;28;20038;-67
2023/12/06 01:19:30;;;;;;;27.10;14.37;;;;;;;-10.30;97.48;102541.19;5114467;28;20269;-65
2023/12/06 01:21:55;;;;;;;16.10;12.53;;;;;;;-10.39;97.09;102524.81;5114444;28;20031;-68
2023/12/06 01:24:21;;;;;;;21.40;12.87;;;;;;;-10.22;97.39;102542.09;5112998;28;20069;-67
2023/12/06 01:26:47;;;;;;;21.07;11.07;;;;;;;-10.12;97.29;102551.56;5114654;28;20538;-66
2023/12/06 01:29:12;;;;;;;17.20;10.33;;;;;;;-10.23;97.68;102505.16;5114248;28;20129;-65
2023/12/06 01:31:38;;;;;;;20.03;11.00;;;;;;;-10.04;97.05;102512.16;5114324;28;20104;-66
2023/12/06 01:34:05;;;;;;;18.27;12.07;;;;;;;-9.76;95.81;102559.59;5114070;28;20502;-66
2023/12/06 01:36:32;;;;;;;18.42;10.23;;;;;;;-9.89;95.87;102532.00;5114059;28;20043;-66
2023/12/06 01:38:57;;;;;;;22.42;9.57;;;;;;;-9.85;93.68;102544.03;5114041;28;20415;-66
2023/12/06 01:41:23;;;;;;;21.57;10.33;;;;;;;-10.28;91.68;102512.00;5114356;28;20039;-66
2023/12/06 01:43:49;;;;;;;19.80;12.10;;;;;;;-10.36;93.37;102524.84;5114509;28;20050;-65
2023/12/06 01:46:15;;;;;;;19.17;10.57;;;;;;;-10.42;94.65;102529.91;5114112;28;20471;-66
2023/12/06 01:48:43;;;;;;;18.25;10.88;;;;;;;-10.15;96.45;102554.13;5112838;28;20118;-67
2023/12/06 01:51:12;;;;;;;16.70;11.07;;;;;;;-10.20;95.20;102546.38;5114030;28;20143;-65
2023/12/06 01:53:37;;;;;;;14.65;10.35;;;;;;;-10.21;94.29;102543.81;5113781;28;20176;-65
2023/12/06 01:56:06;;;;;;;20.27;10.77;;;;;;;-10.17;93.41;102550.69;5113630;27;20489;-66
2023/12/06 01:58:34;;;;;;;14.57;10.02;;;;;;;-10.30;93.12;102541.19;5100365;28;20043;-65
2023/12/06 02:01:01;;;;;;;16.92;10.82;;;;;;;-10.14;94.75;102554.16;5107203;28;20043;-66
2023/12/06 02:03:27;;;;;;;20.98;11.77;;;;;;;-10.05;93.67;102564.56;5092236;28;20083;-65
2023/12/06 02:05:55;;;;;;;18.42;10.70;;;;;;;-9.99;93.30;102566.31;5092315;28;20040;-67
2023/12/06 02:08:21;;;;;;;18.02;9.98;;;;;;;-9.87;93.74;102586.13;5093962;28;20048;-68
2023/12/06 02:10:46;;;;;;;16.97;10.77;;;;;;;-9.77;92.40;102575.06;5093544;28;20039;-68
2023/12/06 02:13:12;;;;;;;20.20;11.13;;;;;;;-9.88;92.72;102549.19;5094168;28;20406;-66
2023/12/06 02:15:38;;;;;;;19.97;12.43;;;;;;;-9.72;91.34;102581.97;5093014;28;20028;-66
2023/12/06 02:18:05;;;;;;;20.23;10.70;;;;;;;-9.87;90.23;102573.25;5093255;28;20031;-67
2023/12/06 02:20:31;;;;;;;17.48;10.38;;;;;;;-9.95;90.10;102575.78;5092379;28;20036;-67
2023/12/06 02:22:58;;;;;;;21.73;12.93;;;;;;;-10.16;90.78;102552.41;5094106;28;20399;-64
2023/12/06 02:25:24;;;;;;;17.05;12.45;;;;;;;-10.09;90.65;102559.38;5102896;28;20036;-66
2023/12/06 02:27:50;;;;;;;20.60;13.47;;;;;;;-10.50;89.49;102513.53;5128141;28;20091;-66
2023/12/06 02:30:15;;;;;;;20.37;11.90;;;;;;;-10.24;91.05;102560.13;5117818;28;20062;-66
2023/12/06 02:32:41;;;;;;;22.60;13.50;;;;;;;-10.36;91.07;102539.44;5113241;28;20600;-68
2023/12/06 02:35:30;;;;;;;22.13;13.37;;;;;;;-10.04;90.41;102598.91;5113962;28;20032;-67
2023/12/06 02:37:58;;;;;;;22.48;13.70;;;;;;;-10.14;90.43;102581.63;5114196;28;20035;-66
2023/12/06 02:40:27;;;;;;;17.70;11.45;;;;;;;-10.07;89.97;102596.31;5113451;28;20031;-65
2023/12/06 02:42:53;;;;;;;21.55;12.63;;;;;;;-10.09;89.99;102598.03;5122830;28;20051;-66
2023/12/06 02:45:18;;;;;;;15.00;9.87;;;;;;;-10.28;89.78;102568.69;5128812;28;20031;-67
2023/12/06 02:47:45;;;;;;;15.47;12.03;;;;;;;-10.24;90.37;102574.72;5114108;28;20038;-66
2023/12/06 02:50:11;;;;;;;13.77;9.88;;;;;;;-10.11;90.11;102598.00;5111798;28;20061;-65
2023/12/06 02:52:37;;;;;;;19.47;11.90;;;;;;;-10.30;90.41;102574.66;5113976;28;20047;-67
2023/12/06 02:55:03;;;;;;;17.30;10.75;;;;;;;-10.35;90.05;102570.34;5114321;28;20047;-66
2023/12/06 02:57:30;;;;;;;22.35;12.43;;;;;;;-10.27;90.20;102565.25;5113361;28;20039;-65
2023/12/06 02:59:56;;;;;;;18.07;12.63;;;;;;;-10.13;90.01;102588.50;5113980;28;20036;-66
2023/12/06 03:02:21;;;;;;;15.30;9.60;;;;;;;-10.00;88.82;102605.81;5113425;28;20036;-67
2023/12/06 03:04:48;;;;;;;14.50;11.27;;;;;;;-10.17;89.47;102579.03;5113044;28;20055;-68
2023/12/06 03:07:13;;;;;;;27.33;13.27;;;;;;;-10.25;89.65;102573.00;5112847;28;20044;-66
2023/12/06 03:09:39;;;;;;;18.33;12.30;;;;;;;-10.13;89.47;102609.13;5118915;28;20065;-66
2023/12/06 03:12:07;;;;;;;18.67;11.33;;;;;;;-10.95;89.28;102495.97;5116188;28;20567;-65
2023/12/06 03:14:33;;;;;;;21.63;10.73;;;;;;;-10.20;90.40;102620.25;5126702;28;20423;-65
2023/12/06 03:16:58;;;;;;;17.83;12.23;;;;;;;-10.24;90.29;102616.78;5129033;28;20122;-67
2023/12/06 03:19:24;;;;;;;18.80;12.43;;;;;;;-10.37;89.68;102614.97;5127516;28;20036;-66
2023/12/06 03:21:50;;;;;;;15.73;10.60;;;;;;;-10.42;90.66;102632.94;5124540;28;20043;-66
2023/12/06 03:24:15;;;;;;;17.63;11.10;;;;;;;-10.29;91.12;102638.22;5114124;28;20042;-66
2023/12/06 03:26:41;;;;;;;21.70;12.57;;;;;;;-10.33;90.89;102637.31;5114894;28;20096;-68
2023/12/06 03:29:06;;;;;;;18.57;12.83;;;;;;;-10.46;91.66;102622.59;5121634;28;20039;-65
2023/12/06 03:31:32;;;;;;;15.77;11.20;;;;;;;-10.69;91.09;102596.63;5126838;28;20042;-67
2023/12/06 03:33:57;;;;;;;17.17;10.90;;;;;;;-10.58;91.39;102614.75;5124827;28;20027;-66
2023/12/06 03:36:23;;;;;;;18.20;13.37;;;;;;;-10.66;92.10;102601.78;5126894;28;20039;-65
2023/12/06 03:38:49;;;;;;;19.03;13.03;;;;;;;-10.63;92.27;102597.53;5129557;28;20031;-65
2023/12/06 03:41:14;;;;;;;22.87;14.13;;;;;;;-10.57;90.68;102617.34;5109827;28;20113;-68
2023/12/06 03:43:40;;;;;;;23.27;14.77;;;;;;;-10.65;90.71;102632.72;5126189;28;20122;-67
2023/12/06 03:46:08;;;;;;;22.47;12.33;;;;;;;-10.62;92.29;102649.91;5128042;28;20065;-69
2023/12/06 03:48:34;;;;;;;21.27;13.98;;;;;;;-10.72;93.20;102623.16;5130107;28;20064;-64
2023/12/06 03:51:00;;;;;;;24.50;14.05;;;;;;;-10.84;92.91;102602.44;5128684;28;20034;-67
2023/12/06 03:53:25;;;;;;;21.67;11.90;;;;;;;-10.62;93.24;102624.16;5128801;28;20035;-65
2023/12/06 03:55:51;;;;;;;19.80;13.40;;;;;;;-10.72;93.25;102607.72;5126895;28;20036;-65
2023/12/06 03:58:17;;;;;;;19.23;12.60;;;;;;;-10.66;93.22;102597.50;5125731;28;20045;-71
2023/12/06 04:00:42;;;;;;;19.33;12.20;;;;;;;-10.37;93.39;102605.53;5127494;28;20027;-64
2023/12/06 04:03:09;;;;;;;17.33;11.43;;;;;;;-9.94;91.88;102651.38;5132933;28;20292;-65
2023/12/06 04:05:34;;;;;;;16.65;10.85;;;;;;;-9.87;91.43;102628.25;5127025;28;20414;-67
2023/12/06 04:08:00;;;;;;;19.10;12.37;;;;;;;-10.25;90.23;102553.25;5115846;28;20039;-67
2023/12/06 04:10:26;;;;;;;18.07;10.13;;;;;;;-10.45;88.38;102534.16;5112667;28;20100;-67
2023/12/06 04:12:51;;;;;;;25.83;10.63;;;;;;;-9.81;87.79;102654.09;5110743;28;20065;-65
2023/12/06 04:15:17;;;;;;;16.10;10.60;;;;;;;-9.92;89.09;102647.97;5112260;28;20040;-68
2023/12/06 04:17:43;;;;;;;22.87;11.13;;;;;;;-9.97;89.46;102647.06;5112486;28;20039;-67
2023/12/06 04:20:09;;;;;;;15.10;9.73;;;;;;;-9.98;90.85;102654.78;5112348;28;20061;-68
2023/12/06 04:22:35;;;;;;;19.75;12.15;;;;;;;-10.14;89.49;102636.59;5112081;28;20398;-65
2023/12/06 04:25:01;;;;;;;18.08;12.25;;;;;;;-10.03;89.65;102659.91;5111931;28;20035;-68
2023/12/06 04:27:27;;;;;;;15.90;12.27;;;;;;;-10.59;90.04;102582.97;5112219;28;20047;-66
2023/12/06 04:29:53;;;;;;;20.33;12.17;;;;;;;-10.10;91.10;102661.56;5094005;28;20535;-66
2023/12/06 04:32:18;;;;;;;25.90;11.90;;;;;;;-10.26;91.37;102622.78;5112596;28;20047;-66
2023/12/06 04:34:52;;;;;;;15.43;11.57;;;;;;;-9.98;91.03;102649.63;5111211;28;20042;-67
2023/12/06 04:37:18;;;;;;;17.65;11.15;;;;;;;-10.11;89.49;102639.22;5112522;28;20125;-65
2023/12/06 04:39:43;;;;;;;21.17;17.40;;;;;;;-10.02;89.56;102643.59;5110885;28;20106;-66
2023/12/06 04:42:09;;;;;;;21.93;12.13;;;;;;;-9.81;89.23;102660.97;5111926;28;20036;-66
2023/12/06 04:44:36;;;;;;;20.47;15.13;;;;;;;-9.84;88.09;102663.50;5114626;28;20027;-69
2023/12/06 04:47:01;;;;;;;24.45;12.93;;;;;;;-10.09;88.68;102647.84;5115113;28;20035;-68
2023/12/06 04:49:27;;;;;;;21.23;13.43;;;;;;;-10.20;88.48;102658.91;5114494;28;20034;-67
2023/12/06 04:51:53;;;;;;;23.20;14.47;;;;;;;-10.17;90.52;102656.31;5116830;28;20042;-68
2023/12/06 04:54:18;;;;;;;22.60;13.83;;;;;;;-10.47;89.66;102620.84;5116418;28;20031;-66
2023/12/06 04:56:44;;;;;;;28.00;15.27;;;;;;;-10.24;90.26;102655.44;5115068;28;20090;-68
2023/12/06 04:59:10;;;;;;;23.85;12.57;;;;;;;-10.30;90.99;102657.09;5110249;28;20036;-70
2023/12/06 05:01:36;;;;;;;22.37;11.83;;;;;;;-10.41;91.61;102637.25;5093563;28;20034;-72
2023/12/06 05:04:03;;;;;;;23.23;12.87;;;;;;;-10.22;91.92;102664.06;5093305;28;20250;-70
2023/12/06 05:06:28;;;;;;;26.60;13.30;;;;;;;-10.33;92.82;102653.66;5096496;28;20093;-67
2023/12/06 05:08:54;;;;;;;25.57;14.23;;;;;;;-10.38;92.47;102639.88;5097577;28;20040;-71
2023/12/06 05:11:20;;;;;;;24.25;14.73;;;;;;;-10.92;91.69;102565.47;5099032;28;20046;-68
2023/12/06 05:13:46;;;;;;;25.43;16.13;;;;;;;-11.06;91.62;102570.44;5097209;28;20032;-71
2023/12/06 05:16:11;;;;;;;27.63;14.80;;;;;;;-11.17;92.06;102597.75;5095942;28;20059;-71
2023/12/06 05:18:37;;;;;;;30.93;17.57;;;;;;;-10.91;93.25;102658.97;5096769;28;20495;-70
2023/12/06 05:21:03;;;;;;;25.83;15.37;;;;;;;-10.77;93.98;102685.75;5096670;28;20071;-70
2023/12/06 05:23:29;;;;;;;28.27;15.57;;;;;;;-11.22;93.79;102625.13;5095233;28;20176;-70
2023/12/06 05:25:54;;;;;;;36.03;18.87;;;;;;;-11.16;93.24;102650.94;5093943;28;20495;-69
2023/12/06 05:28:20;;;;;;;35.13;16.87;;;;;;;-11.22;94.33;102666.28;5092316;28;20031;-66
2023/12/06 05:30:45;;;;;;;34.00;16.17;;;;;;;-11.09;96.45;102688.75;5094249;28;20036;-68
2023/12/06 05:33:11;;;;;;;29.43;15.87;;;;;;;-11.09;95.84;102700.75;5094342;28;20035;-68
2023/12/06 05:35:37;;;;;;;34.75;17.75;;;;;;;-11.17;96.43;102681.78;5094579;28;20042;-69
2023/12/06 05:38:03;;;;;;;31.63;16.27;;;;;;;-11.17;97.60;102669.78;5092801;28;20479;-68
2023/12/06 05:40:29;;;;;;;34.73;16.10;;;;;;;-11.02;96.16;102690.56;5092852;28;20530;-67
2023/12/06 05:42:54;;;;;;;25.27;16.27;;;;;;;-11.07;96.47;102702.50;5092652;28;20039;-67
2023/12/06 05:45:20;;;;;;;39.30;15.87;;;;;;;-11.30;97.11;102667.88;5092606;28;20040;-68
2023/12/06 05:47:45;;;;;;;30.93;15.60;;;;;;;-11.02;97.63;102710.28;5093785;28;20039;-66
2023/12/06 05:50:12;;;;;;;33.60;15.10;;;;;;;-11.15;96.34;102703.25;5091619;28;20882;-68
2023/12/06 05:52:38;;;;;;;31.17;16.80;;;;;;;-11.27;96.54;102694.53;5112141;28;20126;-68
2023/12/06 05:55:05;;;;;;;23.40;14.27;;;;;;;-11.34;96.59;102713.25;5112881;28;20123;-66
2023/12/06 05:57:32;;;;;;;28.30;15.80;;;;;;;-11.48;96.80;102701.03;5113666;28;20078;-67
2023/12/06 05:59:58;;;;;;;34.65;18.80;;;;;;;-11.47;97.43;102718.19;5112725;28;20035;-66
2023/12/06 06:02:24;;;;;;;28.40;15.18;;;;;;;-11.69;97.79;102697.28;5112188;28;20100;-67
2023/12/06 06:04:50;;;;;;;32.27;16.10;;;;;;;-11.65;99.25;102705.91;5113176;28;20515;-67
2023/12/06 06:07:16;;;;;;;26.98;15.88;;;;;;;-11.48;98.93;102731.91;5111849;28;20036;-65
2023/12/06 06:09:42;;;;;;;25.17;14.73;;;;;;;-11.62;97.81;102711.09;5112442;28;20072;-67
2023/12/06 06:12:08;;;;;;;19.83;13.37;;;;;;;-11.62;97.93;102716.22;5112462;28;20035;-67
2023/12/06 06:14:33;;;;;;;19.20;12.27;;;;;;;-11.52;97.64;102733.56;5111735;28;20032;-66
2023/12/06 06:17:00;;;;;;;21.23;11.90;;;;;;;-11.74;97.31;102701.47;5111852;28;20494;-67
2023/12/06 06:19:25;;;;;;;20.47;12.50;;;;;;;-11.58;97.80;102730.84;5112970;28;20120;-68
2023/12/06 06:21:51;;;;;;;19.13;12.90;;;;;;;-11.54;98.03;102735.25;5111185;28;20034;-66
2023/12/06 06:24:17;;;;;;;28.10;12.83;;;;;;;-11.74;97.42;102710.91;5112986;28;20051;-68
2023/12/06 06:26:43;;;;;;;19.10;12.32;;;;;;;-11.50;98.16;102720.72;5112646;28;20039;-67
2023/12/06 06:29:09;;;;;;;19.53;11.80;;;;;;;-11.16;97.87;102745.25;5112514;28;20933;-67
2023/12/06 06:31:34;;;;;;;16.60;10.20;;;;;;;-11.01;97.27;102738.59;5112428;28;20046;-66
2023/12/06 06:34:02;;;;;;;35.73;17.67;;;;;;;-10.89;95.85;102752.50;5112422;28;20032;-69
2023/12/06 06:36:28;;;;;;;22.40;13.98;;;;;;;-12.05;93.43;102584.53;5112635;27;20402;-69
2023/12/06 06:38:57;;;;;;;30.50;15.10;;;;;;;-11.42;93.75;102714.84;5112123;27;20117;-66
2023/12/06 06:41:36;;;;;;;25.95;15.75;;;;;;;-11.62;95.67;102681.09;5112434;28;20058;-67
2023/12/06 06:44:02;;;;;;;28.98;15.60;;;;;;;-11.20;96.02;102741.78;5092307;28;20380;-65
2023/12/06 06:46:27;;;;;;;27.03;15.77;;;;;;;-10.96;95.48;102767.00;5110841;28;20034;-67
2023/12/06 06:48:56;;;;;;;26.30;14.83;;;;;;;-11.14;94.36;102721.28;5111908;28;20028;-66
2023/12/06 06:51:35;;;;;;;25.30;14.60;;;;;;;-10.94;92.92;102749.88;5110559;28;20061;-66
2023/12/06 06:54:02;;;;;;;18.50;12.32;;;;;;;-10.82;93.21;102774.91;5111050;28;20089;-65
2023/12/06 06:56:28;;;;;;;20.67;12.85;;;;;;;-11.11;91.75;102736.75;5111352;28;20054;-66
2023/12/06 06:58:54;;;;;;;22.80;11.45;;;;;;;-10.88;91.35;102778.25;5110381;28;20870;-69
2023/12/06 07:01:20;;;;;;;23.13;11.10;;;;;;;-11.00;90.50;102778.06;5112300;28;20088;-67
2023/12/06 07:03:45;;;;;;;22.33;12.00;;;;;;;-11.26;90.68;102762.25;5112045;28;20047;-66
2023/12/06 07:06:11;;;;;;;20.03;10.87;;;;;;;-11.33;90.94;102761.28;5111579;28;20084;-68
2023/12/06 07:08:37;;;;;;;23.17;12.10;;;;;;;-11.15;92.01;102783.00;5112235;28;20453;-70
2023/12/06 07:11:04;;;;;;;20.27;12.30;;;;;;;-11.35;90.14;102768.09;5111033;28;20045;-67
2023/12/06 07:13:31;;;;;;;26.52;13.68;;;;;;;-11.51;89.54;102781.56;5107849;28;20051;-67
2023/12/06 07:15:57;;;;;;;23.35;12.55;;;;;;;-11.64;90.63;102798.47;5112141;28;20046;-69
2023/12/06 07:18:25;;;;;;;21.70;11.32;;;;;;;-11.80;92.12;102804.22;5112255;28;20031;-68
2023/12/06 07:20:51;;;;;;;22.98;14.18;;;;;;;-11.89;93.09;102797.19;5105969;28;20054;-68
2023/12/06 07:23:18;;;;;;;24.17;12.70;;;;;;;-11.82;93.78;102781.91;5111608;28;20039;-67
2023/12/06 07:25:45;;;;;;;24.92;13.23;;;;;;;-11.54;93.64;102783.22;5112456;28;20039;-66
2023/12/06 07:28:20;;;;;;;28.88;14.77;;;;;;;-11.31;92.33;102805.03;5107002;28;20036;-68
2023/12/06 07:30:48;;;;;;;26.85;14.60;;;;;;;-11.33;89.88;102799.84;5110680;28;20465;-69
2023/12/06 07:33:14;;;;;;;25.10;12.45;;;;;;;-11.28;90.32;102810.22;5108645;28;20036;-68
2023/12/06 07:35:40;;;;;;;22.65;14.35;;;;;;;-11.25;89.72;102820.56;5112519;28;20067;-69
2023/12/06 07:38:08;;;;;;;27.13;15.38;;;;;;;-12.15;89.91;102682.81;5111230;28;20036;-71
2023/12/06 07:40:33;;;;;;;27.42;16.67;;;;;;;-11.49;90.49;102785.03;5111511;28;20421;-73
2023/12/06 07:42:59;;;;;;;31.03;17.57;;;;;;;-11.31;89.85;102821.31;5110175;28;20084;-65
2023/12/06 07:45:25;;;;;;;29.73;16.20;;;;;;;-11.60;90.80;102777.09;5111109;28;20387;-66
2023/12/06 07:47:50;;;;;;;26.30;15.73;;;;;;;-11.29;90.58;102818.78;5110215;28;20023;-66
2023/12/06 07:50:16;;;;;;;26.97;17.10;;;;;;;-11.41;90.73;102798.00;5111588;28;20114;-68
2023/12/06 07:52:42;;;;;;;37.93;17.07;;;;;;;-11.34;89.84;102816.13;5111947;28;20039;-67
2023/12/06 07:55:09;;;;;;;32.87;17.80;;;;;;;-11.35;91.32;102810.97;5111665;28;20428;-69
2023/12/06 07:57:36;;;;;;;32.38;16.75;;;;;;;-11.27;90.87;102835.13;5110484;28;20036;-69
2023/12/06 08:00:04;;;;;;;35.70;16.45;;;;;;;-11.46;90.91;102808.22;5111362;28;20509;-66
2023/12/06 08:02:32;;;;;;;26.38;15.48;;;;;;;-11.53;91.48;102797.81;5110215;28;20039;-69
2023/12/06 08:05:02;;;;;;;38.75;18.17;;;;;;;-11.49;92.65;102821.03;5111658;28;20055;-68
2023/12/06 08:07:29;;;;;;;32.70;18.90;;;;;;;-11.56;92.36;102803.75;5111577;28;20118;-71
2023/12/06 08:09:55;;;;;;;31.13;17.53;;;;;;;-11.54;92.79;102806.34;5111827;28;20559;-71
2023/12/06 08:12:20;;;;;;;35.90;17.00;;;;;;;-11.72;92.22;102787.19;5111797;28;20054;-66
2023/12/06 08:14:46;;;;;;;33.27;18.93;;;;;;;-11.45;92.06;102835.66;5094569;28;20055;-70
2023/12/06 08:17:12;;;;;;;33.90;19.90;;;;;;;-11.64;91.92;102825.88;5110500;28;20065;-70
2023/12/06 08:19:37;;;;;;;38.63;20.87;;;;;;;-11.57;93.25;102850.84;5115275;28;20053;-69
2023/12/06 08:22:03;;;;;;;39.43;19.77;;;;;;;-11.67;94.15;102830.97;5115854;28;20035;-68
2023/12/06 08:24:29;;;;;;;37.83;20.00;;;;;;;-11.39;94.33;102866.63;5116653;28;20028;-67
2023/12/06 08:26:54;;;;;;;40.73;18.33;;;;;;;-11.51;93.96;102839.84;5114375;28;20272;-68
2023/12/06 08:29:23;;;;;;;35.83;19.43;;;;;;;-11.71;93.53;102777.78;5115635;28;20039;-68
2023/12/06 08:31:51;;;;;;;31.17;16.48;;;;;;;-11.32;93.51;102855.59;5114162;28;20542;-67
2023/12/06 08:34:17;;;;;;;33.83;17.27;;;;;;;-11.30;92.54;102841.06;5098364;28;20063;-68
2023/12/06 08:36:46;;;;;;;39.80;18.63;;;;;;;-11.25;93.33;102838.59;5114717;28;20136;-66
2023/12/06 08:39:17;;;;;;;46.22;23.25;;;;;;;-11.03;93.91;102848.38;5113653;28;20398;-69
2023/12/06 08:41:43;;;;;;;42.85;20.73;;;;;;;-11.02;93.73;102820.94;5114234;28;20136;-68
2023/12/06 08:44:08;;;;;;;53.27;22.73;;;;;;;-10.58;93.88;102849.94;5115917;28;20488;-70
2023/12/06 08:46:34;;;;;;;32.50;18.63;;;;;;;-10.24;91.94;102858.09;5115759;28;20402;-69
2023/12/06 08:48:59;;;;;;;45.77;19.17;;;;;;;-10.18;90.81;102858.16;5115544;28;20039;-69
2023/12/06 08:51:25;;;;;;;46.73;20.77;;;;;;;-10.33;90.30;102843.41;5114595;28;20030;-67
2023/12/06 08:54:15;;;;;;;;;;;;;;;;;;;;;
2023/12/06 08:56:42;;;;;;;38.70;18.58;;;;;;;-10.53;90.34;102870.59;5113133;28;20043;-68
2023/12/06 08:59:07;;;;;;;38.63;19.02;;;;;;;-10.51;91.55;102874.03;5115165;28;20050;-66
2023/12/06 09:01:33;;;;;;;39.90;17.93;;;;;;;-11.12;90.99;102807.06;5113443;28;20047;-68
2023/12/06 09:04:00;;;;;;;39.27;18.80;;;;;;;-11.17;92.20;102844.72;5112637;28;20146;-67
2023/12/06 09:06:26;;;;;;;42.33;19.55;;;;;;;-11.39;94.25;102837.47;5115019;28;20049;-69
2023/12/06 09:08:51;;;;;;;38.23;18.63;;;;;;;-11.34;94.51;102872.72;5113594;28;20543;-67
2023/12/06 09:11:21;;;;;;;39.87;19.43;;;;;;;-11.39;96.37;102873.47;5113795;28;20047;-68
2023/12/06 09:13:48;;;;;;;41.25;17.70;;;;;;;-11.52;96.49;102846.69;5114478;28;20044;-67
2023/12/06 09:16:16;;;;;;;40.92;17.50;;;;;;;-11.22;96.12;102887.50;5096262;28;20040;-66
2023/12/06 09:18:42;;;;;;;32.73;16.77;;;;;;;-11.30;95.49;102873.63;5096293;28;20027;-68
2023/12/06 09:21:07;;;;;;;33.77;17.53;;;;;;;-11.50;95.21;102852.72;5114332;28;20552;-68
2023/12/06 09:23:33;;;;;;;45.57;17.80;;;;;;;-11.37;95.90;102894.94;5113559;28;20081;-65
2023/12/06 09:25:59;;;;;;;45.80;18.07;;;;;;;-11.53;96.37;102859.50;5112539;28;20066;-69
2023/12/06 09:28:25;;;;;;;37.35;17.50;;;;;;;-11.97;95.99;102792.75;5108611;28;20097;-70
2023/12/06 09:30:54;;;;;;;40.35;17.60;;;;;;;-11.43;98.05;102866.53;5112634;28;20113;-70
2023/12/06 09:33:19;;;;;;;43.17;18.60;;;;;;;-11.42;97.78;102858.84;5114259;28;20888;-69
2023/12/06 09:35:45;;;;;;;40.07;18.83;;;;;;;-11.29;97.03;102875.34;5112324;28;20034;-68
2023/12/06 09:38:12;;;;;;;40.93;18.53;;;;;;;-11.37;97.64;102866.66;5112567;28;20062;-71
2023/12/06 09:40:38;;;;;;;35.42;17.45;;;;;;;-11.38;97.94;102858.06;5113499;28;20371;-70
2023/12/06 09:43:03;;;;;;;36.60;17.10;;;;;;;-11.69;97.81;102800.09;5112642;28;20039;-68
2023/12/06 09:45:30;;;;;;;36.57;17.93;;;;;;;-11.36;97.95;102851.25;5113702;28;21118;-68
2023/12/06 09:48:00;;;;;;;34.97;19.05;;;;;;;-11.18;98.39;102886.72;5105860;28;20063;-68
2023/12/06 09:50:29;;;;;;;40.17;18.00;;;;;;;-11.19;99.29;102882.41;5107913;28;20032;-71
2023/12/06 09:52:55;;;;;;;;;;;;;;;-10.98;99.24;102893.06;5113097;28;20035;-67
2023/12/06 09:55:24;;;;;;;30.93;18.27;;;;;;;-10.92;99.55;102882.00;5114459;28;19916;-68
2023/12/06 09:57:56;;;;;;;32.30;18.73;;;;;;;-10.95;99.67;102871.66;5114941;28;20414;-69
2023/12/06 10:00:22;;;;;;;33.03;17.25;;;;;;;-10.90;99.88;102848.56;5116901;28;20046;-68
2023/12/06 10:02:53;;;;;;;44.70;20.50;;;;;;;-10.60;99.87;102882.50;5117960;28;20460;-67
2023/12/06 10:05:19;;;;;;;41.97;16.42;;;;;;;-10.56;99.93;102888.56;5114597;27;20059;-69
2023/12/06 10:07:46;;;;;;;32.08;18.33;;;;;;;-10.51;99.98;102890.38;5099222;28;20036;-70
2023/12/06 10:10:15;;;;;;;45.25;19.52;;;;;;;-10.59;98.99;102891.09;5122609;28;20094;-69
2023/12/06 10:12:52;;;;;;;40.05;19.42;;;;;;;-11.01;98.53;102864.69;5114221;28;20050;-71
2023/12/06 10:15:19;;;;;;;45.90;18.42;;;;;;;-11.23;99.35;102860.06;5117340;28;20032;-69
2023/12/06 10:17:45;;;;;;;38.22;18.95;;;;;;;-11.14;100.00;102892.78;5115309;28;20392;-70
2023/12/06 10:20:12;;;;;;;36.28;18.73;;;;;;;-11.29;100.00;102886.50;5114265;28;20058;-71
2023/12/06 10:22:38;;;;;;;39.65;18.52;;;;;;;-11.44;100.00;102850.25;5114043;28;20039;-67
2023/12/06 10:25:06;;;;;;;50.57;19.27;;;;;;;-11.24;99.68;102873.75;5113171;28;20047;-68
2023/12/06 10:27:32;;;;;;;35.38;18.33;;;;;;;-11.09;98.90;102888.56;5114826;28;20040;-66
2023/12/06 10:29:59;;;;;;;47.15;20.08;;;;;;;-11.20;99.66;102852.38;5114890;28;20039;-69
2023/12/06 10:32:29;;;;;;;38.75;17.27;;;;;;;-11.05;99.36;102865.47;5112964;28;20080;-71
2023/12/06 10:34:59;;;;;;;30.75;16.75;;;;;;;-10.78;98.24;102901.09;5115690;28;20042;-70
2023/12/06 10:37:26;;;;;;;32.22;17.40;;;;;;;-10.98;96.91;102869.06;5114852;28;20032;-68
2023/12/06 10:40:11;;;;;;;39.80;20.77;;;;;;;-10.97;97.17;102883.66;5095109;28;20126;-75
2023/12/06 10:42:44;;;;;;;46.72;19.15;;;;;;;-11.10;97.41;102861.97;5111337;28;20028;-69
2023/12/06 10:45:11;;;;;;;51.13;27.38;;;;;;;-10.95;96.90;102913.72;5112919;28;20410;-70
2023/12/06 10:47:40;;;;;;;38.72;20.98;;;;;;;-11.21;97.31;102873.81;5112906;28;20062;-71
2023/12/06 10:50:11;;;;;;;44.78;21.95;;;;;;;-11.03;97.48;102897.25;5111766;28;20427;-69
2023/12/06 10:52:38;;;;;;;48.25;23.00;;;;;;;-10.98;97.15;102917.94;5112702;28;20036;-68
2023/12/06 10:55:08;;;;;;;49.70;23.63;;;;;;;-11.05;97.77;102910.94;5112377;28;20031;-70
2023/12/06 10:57:42;;;;;;;46.33;18.80;;;;;;;-11.33;97.21;102871.00;5093101;28;20130;-70
2023/12/06 11:00:08;;;;;;;49.15;22.70;;;;;;;-11.09;97.07;102920.31;5112904;28;20032;-70
2023/12/06 11:02:39;;;;;;;47.90;23.40;;;;;;;-11.16;98.38;102928.78;5112765;27;20494;-69